createdAt,value
2018-08-17T00:00:33.430Z,52.40
2018-08-17T00:03:04.626Z,52.47
2018-08-17T00:05:36.247Z,54.20
2018-08-17T00:08:07.371Z,52.53
2018-08-17T00:10:38.745Z,56.30
2018-08-17T00:13:09.834Z,54.67
2018-08-17T00:15:41.349Z,55.23
2018-08-17T00:18:12.703Z,57.63
2018-08-17T00:20:43.987Z,56.80
2018-08-17T00:23:15.029Z,56.47
2018-08-17T00:25:46.322Z,56.33
2018-08-17T00:28:17.515Z,55.17
2018-08-17T00:30:48.934Z,52.90
2018-08-17T00:33:20.064Z,52.60
2018-08-17T00:35:51.754Z,50.63
2018-08-17T00:38:23.013Z,49.20
2018-08-17T00:40:54.462Z,50.00
2018-08-17T00:43:25.580Z,45.30
2018-08-17T00:45:58.045Z,45.90
2018-08-17T00:48:29.128Z,43.97
2018-08-17T00:51:00.662Z,45.47
2018-08-17T00:53:31.634Z,42.27
2018-08-17T00:56:03.118Z,41.17
2018-08-17T00:58:34.230Z,39.17
2018-08-17T01:01:05.595Z,38.10
2018-08-17T01:03:36.533Z,36.90
2018-08-17T01:06:07.873Z,36.37
2018-08-17T01:08:39.025Z,38.13
2018-08-17T01:11:10.682Z,37.43
2018-08-17T01:13:41.730Z,35.60
2018-08-17T01:16:13.049Z,36.77
2018-08-17T01:18:44.112Z,35.07
2018-08-17T01:21:15.521Z,37.17
2018-08-17T01:23:46.501Z,35.60
2018-08-17T01:26:17.603Z,34.87
2018-08-17T01:28:48.680Z,33.60
2018-08-17T01:31:20.016Z,34.37
2018-08-17T01:33:51.082Z,37.17
2018-08-17T01:36:22.299Z,37.13
2018-08-17T01:38:53.395Z,36.63
2018-08-17T01:41:24.786Z,36.77
2018-08-17T01:43:55.956Z,35.93
2018-08-17T01:46:28.281Z,34.93
2018-08-17T01:48:59.280Z,38.40
2018-08-17T01:51:30.461Z,35.00
2018-08-17T01:54:01.726Z,36.33
2018-08-17T01:56:33.050Z,33.93
2018-08-17T01:59:04.222Z,34.60
2018-08-17T02:01:35.656Z,37.50
2018-08-17T02:04:06.861Z,35.37
2018-08-17T02:06:38.645Z,36.73
2018-08-17T02:09:11.994Z,34.73
2018-08-17T02:11:43.430Z,35.00
2018-08-17T02:14:14.429Z,34.13
2018-08-17T02:16:45.710Z,37.90
2018-08-17T02:19:16.752Z,35.10
2018-08-17T02:21:48.030Z,33.90
2018-08-17T02:24:19.021Z,35.70
2018-08-17T02:26:50.613Z,33.50
2018-08-17T02:29:22.515Z,36.43
2018-08-17T02:31:53.711Z,35.70
2018-08-17T02:34:24.746Z,33.67
2018-08-17T02:36:56.218Z,34.30
2018-08-17T02:39:27.498Z,35.37
2018-08-17T02:41:58.873Z,33.17
2018-08-17T02:44:30.026Z,34.40
2018-08-17T02:47:01.793Z,35.97
2018-08-17T02:49:33.097Z,34.87
2018-08-17T02:52:06.020Z,32.63
2018-08-17T02:54:37.336Z,34.33
2018-08-17T02:57:08.805Z,35.77
2018-08-17T02:59:40.145Z,35.33
2018-08-17T03:02:11.443Z,30.80
2018-08-17T03:04:42.347Z,33.83
2018-08-17T03:07:13.661Z,35.17
2018-08-17T03:09:44.626Z,33.13
2018-08-17T03:12:16.283Z,32.07
2018-08-17T03:14:47.230Z,32.60
2018-08-17T03:17:18.597Z,32.60
2018-08-17T03:19:49.727Z,32.83
2018-08-17T03:22:21.161Z,33.67
2018-08-17T03:24:52.370Z,34.03
2018-08-17T03:27:23.519Z,31.53
2018-08-17T03:29:54.765Z,31.97
2018-08-17T03:32:25.981Z,30.77
2018-08-17T03:34:57.293Z,34.40
2018-08-17T03:37:28.834Z,32.60
2018-08-17T03:39:59.905Z,31.60
2018-08-17T03:42:31.310Z,32.53
2018-08-17T03:45:02.412Z,30.17
2018-08-17T03:47:35.191Z,35.37
2018-08-17T03:50:06.611Z,31.97
2018-08-17T03:52:38.105Z,30.67
2018-08-17T03:55:09.323Z,31.80
2018-08-17T03:57:40.739Z,31.10
2018-08-17T04:00:12.234Z,29.90
2018-08-17T04:02:43.426Z,30.90
2018-08-17T04:05:14.722Z,29.60
2018-08-17T04:07:46.151Z,30.43
2018-08-17T04:10:17.322Z,27.53
2018-08-17T04:12:48.724Z,29.37
2018-08-17T04:15:19.984Z,28.30
2018-08-17T04:17:51.446Z,25.70
2018-08-17T04:20:22.827Z,26.07
2018-08-17T04:22:54.373Z,26.00
2018-08-17T04:25:25.453Z,25.43
2018-08-17T04:27:57.305Z,24.60
2018-08-17T04:30:28.368Z,23.57
2018-08-17T04:32:59.963Z,21.57
2018-08-17T04:35:31.046Z,20.70
2018-08-17T04:38:02.471Z,19.90
2018-08-17T04:40:33.538Z,19.53
2018-08-17T04:43:04.719Z,21.00
2018-08-17T04:45:36.017Z,19.57
2018-08-17T04:48:08.674Z,20.93
2018-08-17T04:50:39.781Z,21.50
2018-08-17T04:53:11.034Z,20.37
2018-08-17T04:55:42.126Z,20.17
2018-08-17T04:58:13.581Z,19.73
2018-08-17T05:00:44.674Z,19.48
2018-08-17T05:03:15.970Z,20.45
2018-08-17T05:05:47.014Z,20.50
2018-08-17T05:08:18.566Z,20.52
2018-08-17T05:10:49.791Z,22.22
2018-08-17T05:13:21.164Z,18.60
2018-08-17T05:15:52.237Z,21.40
2018-08-17T05:18:23.454Z,22.27
2018-08-17T05:20:54.539Z,22.07
2018-08-17T05:23:25.770Z,21.05
2018-08-17T05:25:56.830Z,22.25
2018-08-17T05:28:28.342Z,21.55
2018-08-17T05:30:59.522Z,21.52
2018-08-17T05:33:31.349Z,22.40
2018-08-17T05:36:02.525Z,23.35
2018-08-17T05:38:33.930Z,22.85
2018-08-17T05:41:05.007Z,24.18
2018-08-17T05:43:36.561Z,22.65
2018-08-17T05:46:07.525Z,21.95
2018-08-17T05:48:39.773Z,26.73
2018-08-17T05:51:10.922Z,24.63
2018-08-17T05:53:42.453Z,25.17
2018-08-17T05:56:14.448Z,20.85
2018-08-17T05:58:45.822Z,22.85
2018-08-17T06:01:16.941Z,23.38
2018-08-17T06:03:48.565Z,23.07
2018-08-17T06:06:19.634Z,23.38
2018-08-17T06:08:50.954Z,21.87
2018-08-17T06:11:22.377Z,23.42
2018-08-17T06:13:53.606Z,21.35
2018-08-17T06:16:24.613Z,23.52
2018-08-17T06:18:55.802Z,22.37
2018-08-17T06:21:26.910Z,22.67
2018-08-17T06:23:58.478Z,23.67
2018-08-17T06:26:29.800Z,21.77
2018-08-17T06:29:01.178Z,22.25
2018-08-17T06:31:32.406Z,22.77
2018-08-17T06:34:04.268Z,22.27
2018-08-17T06:36:35.362Z,22.05
2018-08-17T06:39:09.515Z,22.32
2018-08-17T06:41:40.482Z,22.85
2018-08-17T06:44:11.981Z,21.40
2018-08-17T06:46:43.261Z,25.17
2018-08-17T06:49:16.518Z,22.98
2018-08-17T06:51:47.701Z,21.87
2018-08-17T06:54:19.122Z,21.70
2018-08-17T06:56:50.402Z,20.43
2018-08-17T06:59:21.602Z,20.27
2018-08-17T07:01:52.729Z,19.45
2018-08-17T07:04:24.244Z,20.23
2018-08-17T07:06:55.584Z,20.32
2018-08-17T07:09:27.030Z,19.73
2018-08-17T07:11:58.486Z,19.37
2018-08-17T07:14:29.920Z,19.32
2018-08-17T07:17:01.189Z,18.12
2018-08-17T07:19:33.123Z,21.02
2018-08-17T07:22:04.405Z,21.30
2018-08-17T07:24:35.647Z,20.55
2018-08-17T07:27:06.794Z,21.12
2018-08-17T07:29:37.885Z,21.05
2018-08-17T07:32:08.902Z,19.30
2018-08-17T07:34:40.178Z,20.62
2018-08-17T07:37:11.577Z,22.05
2018-08-17T07:39:42.865Z,23.90
2018-08-17T07:42:13.923Z,24.23
2018-08-17T07:44:45.231Z,23.98
2018-08-17T07:47:16.209Z,22.15
2018-08-17T07:49:48.993Z,21.35
2018-08-17T07:52:20.101Z,23.32
2018-08-17T07:54:51.482Z,22.27
2018-08-17T07:57:22.505Z,22.70
2018-08-17T07:59:53.835Z,21.00
2018-08-17T08:02:24.907Z,23.57
2018-08-17T08:04:56.079Z,21.80
2018-08-17T08:07:27.183Z,23.83
2018-08-17T08:09:58.421Z,22.62
2018-08-17T08:12:29.610Z,23.10
2018-08-17T08:15:01.026Z,24.25
2018-08-17T08:17:32.094Z,24.12
2018-08-17T08:20:13.745Z,23.62
2018-08-17T08:22:44.890Z,24.25
2018-08-17T08:25:16.265Z,23.32
2018-08-17T08:27:47.602Z,24.27
2018-08-17T08:30:19.022Z,24.47
2018-08-17T08:32:50.202Z,23.47
2018-08-17T08:35:21.578Z,23.92
2018-08-17T08:37:52.796Z,24.37
2018-08-17T08:40:24.125Z,23.42
2018-08-17T08:42:55.286Z,25.20
2018-08-17T08:45:26.937Z,26.60
2018-08-17T08:47:58.104Z,23.27
2018-08-17T08:50:30.337Z,23.25
2018-08-17T08:53:01.394Z,27.45
2018-08-17T08:55:32.701Z,25.90
2018-08-17T08:58:03.822Z,23.57
2018-08-17T09:00:35.310Z,25.03
2018-08-17T09:03:06.459Z,24.98
2018-08-17T09:05:38.050Z,25.43
2018-08-17T09:08:09.036Z,24.63
2018-08-17T09:10:40.295Z,23.07
2018-08-17T09:13:11.764Z,24.67
2018-08-17T09:15:43.097Z,23.10
2018-08-17T09:18:14.098Z,25.15
2018-08-17T09:20:45.781Z,25.80
2018-08-17T09:23:16.782Z,25.90
2018-08-17T09:25:48.421Z,24.75
2018-08-17T09:28:19.389Z,26.90
2018-08-17T09:30:50.731Z,25.12
2018-08-17T09:33:21.925Z,27.32
2018-08-17T09:35:54.195Z,24.92
2018-08-17T09:38:25.451Z,24.25
2018-08-17T09:40:56.733Z,25.27
2018-08-17T09:43:27.988Z,23.93
2018-08-17T09:45:59.442Z,27.60
2018-08-17T09:48:30.473Z,24.32
2018-08-17T09:51:02.976Z,24.90
2018-08-17T09:53:33.905Z,24.77
2018-08-17T09:56:05.438Z,24.02
2018-08-17T09:58:36.404Z,26.07
2018-08-17T10:01:12.302Z,25.48
2018-08-17T10:03:43.536Z,25.92
2018-08-17T10:06:19.654Z,25.52
2018-08-17T10:08:55.493Z,26.23
2018-08-17T10:11:26.725Z,26.80
2018-08-17T10:13:57.806Z,26.50
2018-08-17T10:16:29.030Z,25.93
2018-08-17T10:19:00.103Z,28.75
2018-08-17T10:21:35.552Z,31.20
2018-08-17T10:24:06.499Z,28.30
2018-08-17T10:26:38.047Z,27.57
2018-08-17T10:29:09.278Z,28.93
2018-08-17T10:31:40.502Z,27.27
2018-08-17T10:34:11.843Z,28.13
2018-08-17T10:36:43.630Z,28.03
2018-08-17T10:39:14.817Z,28.03
2018-08-17T10:41:46.561Z,28.30
2018-08-17T10:44:18.049Z,29.10
2018-08-17T10:46:49.806Z,28.15
2018-08-17T10:49:20.811Z,28.87
2018-08-17T10:51:57.210Z,29.70
2018-08-17T10:54:28.350Z,28.50
2018-08-17T10:56:59.710Z,29.90
2018-08-17T10:59:30.608Z,25.77
2018-08-17T11:02:01.917Z,29.50
2018-08-17T11:04:32.878Z,28.37
2018-08-17T11:07:04.397Z,29.47
2018-08-17T11:09:35.691Z,30.60
2018-08-17T11:12:07.150Z,28.83
2018-08-17T11:14:38.265Z,28.90
2018-08-17T11:17:09.473Z,29.43
2018-08-17T11:19:40.868Z,30.40
2018-08-17T11:22:12.094Z,21.67
2018-08-17T11:24:43.527Z,23.60
2018-08-17T11:27:15.210Z,27.33
2018-08-17T11:29:47.039Z,33.00
2018-08-17T11:32:18.543Z,50.10
2018-08-17T11:34:55.623Z,50.97
2018-08-17T11:37:27.162Z,30.30
2018-08-17T11:40:03.696Z,307.73
2018-08-17T11:42:41.551Z,94.03
2018-08-17T11:45:22.642Z,82.97
2018-08-17T11:47:55.276Z,55.87
2018-08-17T11:50:27.303Z,35.60
2018-08-17T11:53:00.441Z,61.13
2018-08-17T11:55:33.318Z,71.93
2018-08-17T11:58:05.195Z,45.80
2018-08-17T12:00:37.779Z,143.47
2018-08-17T12:03:10.998Z,71.63
2018-08-17T12:05:42.418Z,56.33
2018-08-17T12:08:14.986Z,86.57
2018-08-17T12:10:51.132Z,31.40
2018-08-17T12:13:23.131Z,28.33
2018-08-17T12:15:57.028Z,30.03
2018-08-17T12:18:28.870Z,32.03
2018-08-17T12:21:00.165Z,26.67
2018-08-17T12:23:32.137Z,33.67
2018-08-17T12:26:03.534Z,37.77
2018-08-17T12:28:35.102Z,37.20
2018-08-17T12:31:07.095Z,38.80
2018-08-17T12:33:39.343Z,35.37
2018-08-17T12:36:10.839Z,37.17
2018-08-17T12:38:42.406Z,42.13
2018-08-17T12:41:13.591Z,38.47
2018-08-17T12:43:45.197Z,38.97
2018-08-17T12:46:16.853Z,40.10
2018-08-17T12:48:48.433Z,40.70
2018-08-17T12:51:19.558Z,36.90
2018-08-17T12:53:51.850Z,38.13
2018-08-17T12:56:23.154Z,35.10
2018-08-17T12:58:54.636Z,34.00
2018-08-17T13:01:25.926Z,32.80
2018-08-17T13:03:57.276Z,30.60
2018-08-17T13:06:28.379Z,32.83
2018-08-17T13:08:59.573Z,31.43
2018-08-17T13:11:30.770Z,32.90
2018-08-17T13:14:05.910Z,33.73
2018-08-17T13:16:37.622Z,34.17
2018-08-17T13:19:09.470Z,37.20
2018-08-17T13:21:40.672Z,37.70
2018-08-17T13:24:12.262Z,38.10
2018-08-17T13:26:43.524Z,39.60
2018-08-17T13:29:14.740Z,39.83
2018-08-17T13:31:45.935Z,37.10
2018-08-17T13:34:17.655Z,38.97
2018-08-17T13:36:49.055Z,36.80
2018-08-17T13:39:20.290Z,37.30
2018-08-17T13:41:51.333Z,38.30
2018-08-17T13:44:22.677Z,37.50
2018-08-17T13:46:54.042Z,38.30
2018-08-17T13:49:25.786Z,38.50
2018-08-17T13:51:56.842Z,35.63
2018-08-17T13:54:28.865Z,39.53
2018-08-17T13:56:59.998Z,39.27
2018-08-17T13:59:31.172Z,38.07
2018-08-17T14:02:02.390Z,35.90
2018-08-17T14:04:33.737Z,35.47
2018-08-17T14:07:05.030Z,34.30
2018-08-17T14:09:36.346Z,33.83
2018-08-17T14:12:07.842Z,33.20
2018-08-17T14:14:39.182Z,32.57
2018-08-17T14:17:10.352Z,34.00
2018-08-17T14:19:41.659Z,33.20
2018-08-17T14:22:13.009Z,33.90
2018-08-17T14:24:44.463Z,29.53
2018-08-17T14:27:15.562Z,29.97
2018-08-17T14:29:46.896Z,31.93
2018-08-17T14:32:18.136Z,35.03
2018-08-17T14:34:49.450Z,35.43
2018-08-17T14:37:20.446Z,36.50
2018-08-17T14:39:51.900Z,37.33
2018-08-17T14:42:22.866Z,35.83
2018-08-17T14:44:54.256Z,37.53
2018-08-17T14:47:25.406Z,35.23
2018-08-17T14:49:56.820Z,34.33
2018-08-17T14:52:28.182Z,34.73
2018-08-17T14:55:00.971Z,34.90
2018-08-17T14:57:32.158Z,35.63
2018-08-17T15:00:03.338Z,39.50
2018-08-17T15:02:34.455Z,39.70
2018-08-17T15:05:05.681Z,39.63
2018-08-17T15:07:36.780Z,38.93
2018-08-17T15:10:09.374Z,42.50
2018-08-17T15:12:40.670Z,41.90
2018-08-17T15:15:12.994Z,43.93
2018-08-17T15:17:44.274Z,41.97
2018-08-17T15:20:15.398Z,46.00
2018-08-17T15:22:46.629Z,46.30
2018-08-17T15:25:17.950Z,47.77
2018-08-17T15:27:49.231Z,48.97
2018-08-17T15:30:20.633Z,49.13
2018-08-17T15:32:51.775Z,50.27
2018-08-17T15:35:23.201Z,50.50
2018-08-17T15:37:54.269Z,48.27
2018-08-17T15:40:25.517Z,48.77
2018-08-17T15:42:59.858Z,52.50
2018-08-17T15:45:31.027Z,49.50
2018-08-17T15:48:02.310Z,50.53
2018-08-17T15:50:33.742Z,52.77
2018-08-17T15:53:05.221Z,54.10
2018-08-17T15:55:37.072Z,56.17
2018-08-17T15:58:08.498Z,55.23
2018-08-17T16:00:39.845Z,56.77
2018-08-17T16:03:10.905Z,56.13
2018-08-17T16:05:42.363Z,57.17
2018-08-17T16:08:13.550Z,55.90
2018-08-17T16:10:44.934Z,60.97
2018-08-17T16:13:16.134Z,56.60
2018-08-17T16:15:47.520Z,54.80
2018-08-17T16:18:18.832Z,59.30
2018-08-17T16:20:50.472Z,56.87
2018-08-17T16:23:21.658Z,55.90
2018-08-17T16:25:53.091Z,57.50
2018-08-17T16:28:24.230Z,59.43
2018-08-17T16:30:55.643Z,55.27
2018-08-17T16:33:26.721Z,56.07
2018-08-17T16:35:58.186Z,59.30
2018-08-17T16:38:29.793Z,57.37
2018-08-17T16:41:00.914Z,57.40
2018-08-17T16:43:41.831Z,56.20
2018-08-17T16:46:13.539Z,54.77
2018-08-17T16:48:44.908Z,57.40
2018-08-17T16:51:16.198Z,56.70
2018-08-17T16:53:47.234Z,56.10
2018-08-17T16:56:19.579Z,55.60
2018-08-17T16:58:50.760Z,55.23
2018-08-17T17:01:22.254Z,51.63
2018-08-17T17:03:53.674Z,53.53
2018-08-17T17:06:25.529Z,49.50
2018-08-17T17:09:01.954Z,50.50
2018-08-17T17:11:33.234Z,52.83
2018-08-17T17:14:04.723Z,55.00
2018-08-17T17:16:40.846Z,54.67
2018-08-17T17:19:21.725Z,54.63
2018-08-17T17:21:53.469Z,51.90
2018-08-17T17:24:24.535Z,52.27
2018-08-17T17:26:56.021Z,53.07
2018-08-17T17:29:29.154Z,50.77
2018-08-17T17:32:00.659Z,59.73
2018-08-17T17:34:31.934Z,52.23
2018-08-17T17:37:03.566Z,51.37
2018-08-17T17:39:34.893Z,53.97
2018-08-17T17:42:05.974Z,58.57
2018-08-17T17:44:37.230Z,59.83
2018-08-17T17:47:08.735Z,55.57
2018-08-17T17:49:39.964Z,57.93
2018-08-17T17:52:11.333Z,63.63
2018-08-17T17:54:42.575Z,55.60
2018-08-17T17:57:15.247Z,59.20
2018-08-17T17:59:54.066Z,58.90
2018-08-17T18:02:25.741Z,57.03
2018-08-17T18:04:56.822Z,59.13
2018-08-17T18:07:50.748Z,60.03
2018-08-17T18:10:22.679Z,55.50
2018-08-17T18:12:53.833Z,58.87
2018-08-17T18:15:24.945Z,55.50
2018-08-17T18:17:56.329Z,56.83
2018-08-17T18:20:27.354Z,60.90
2018-08-17T18:22:58.885Z,58.53
2018-08-17T18:25:30.177Z,58.20
2018-08-17T18:28:01.721Z,58.60
2018-08-17T18:30:32.805Z,55.70
2018-08-17T18:33:04.405Z,60.83
2018-08-17T18:35:35.605Z,58.20
2018-08-17T18:38:07.238Z,55.50
2018-08-17T18:40:38.472Z,56.43
2018-08-17T18:43:10.099Z,58.70
2018-08-17T18:45:41.480Z,59.60
2018-08-17T18:48:12.650Z,54.77
2018-08-17T18:50:44.017Z,57.17
2018-08-17T18:53:15.388Z,58.93
2018-08-17T18:55:46.722Z,58.73
2018-08-17T18:58:20.231Z,55.90
2018-08-17T19:00:51.598Z,59.20
2018-08-17T19:03:22.839Z,60.07
2018-08-17T19:05:54.095Z,65.33
2018-08-17T19:08:25.419Z,58.67
2018-08-17T19:10:56.703Z,58.70
2018-08-17T19:13:27.971Z,58.50
2018-08-17T19:15:59.227Z,59.20
2018-08-17T19:18:34.283Z,62.40
2018-08-17T19:21:10.183Z,56.50
2018-08-17T19:23:41.649Z,59.30
2018-08-17T19:26:13.006Z,56.50
2018-08-17T19:28:44.693Z,58.47
2018-08-17T19:31:15.791Z,62.70
2018-08-17T19:33:48.050Z,60.20
2018-08-17T19:36:19.078Z,59.83
2018-08-17T19:38:50.708Z,55.67
2018-08-17T19:41:21.966Z,54.40
2018-08-17T19:43:53.690Z,52.80
2018-08-17T19:46:24.745Z,52.87
2018-08-17T19:48:56.597Z,57.00
2018-08-17T19:51:27.593Z,54.77
2018-08-17T19:53:59.602Z,54.17
2018-08-17T19:56:30.607Z,54.03
2018-08-17T19:59:03.278Z,57.00
2018-08-17T20:01:34.426Z,55.80
2018-08-17T20:04:05.714Z,52.87
2018-08-17T20:06:36.938Z,54.20
2018-08-17T20:09:10.554Z,57.47
2018-08-17T20:11:41.829Z,52.87
2018-08-17T20:14:13.098Z,56.23
2018-08-17T20:16:44.129Z,54.50
2018-08-17T20:19:15.874Z,52.87
2018-08-17T20:21:47.049Z,54.50
2018-08-17T20:24:18.509Z,60.57
2018-08-17T20:26:50.946Z,58.00
2018-08-17T20:29:22.506Z,57.70
2018-08-17T20:31:53.469Z,59.17
2018-08-17T20:34:24.942Z,60.60
2018-08-17T20:36:56.102Z,56.80
2018-08-17T20:39:27.726Z,59.13
2018-08-17T20:41:58.763Z,62.83
2018-08-17T20:44:29.974Z,66.70
2018-08-17T20:47:01.259Z,66.17
2018-08-17T20:49:32.571Z,64.77
2018-08-17T20:52:04.377Z,59.73
2018-08-17T20:54:35.928Z,61.60
2018-08-17T20:57:07.017Z,64.63
2018-08-17T20:59:39.882Z,59.97
2018-08-17T21:02:11.115Z,57.50
2018-08-17T21:04:42.572Z,59.93
2018-08-17T21:07:13.590Z,56.33
2018-08-17T21:09:44.942Z,56.17
2018-08-17T21:12:16.005Z,57.33
2018-08-17T21:14:47.403Z,54.90
2018-08-17T21:17:18.602Z,56.17
2018-08-17T21:19:49.894Z,55.80
2018-08-17T21:22:20.991Z,55.87
2018-08-17T21:24:52.385Z,53.90
2018-08-17T21:27:23.633Z,55.30
2018-08-17T21:29:55.013Z,53.90
2018-08-17T21:32:26.229Z,58.40
2018-08-17T21:34:57.604Z,55.23
2018-08-17T21:37:29.057Z,57.20
2018-08-17T21:40:00.454Z,57.07
2018-08-17T21:42:31.579Z,51.60
2018-08-17T21:45:02.756Z,56.50
2018-08-17T21:47:33.862Z,60.10
2018-08-17T21:50:09.698Z,57.63
2018-08-17T21:52:40.754Z,52.17
2018-08-17T21:55:12.354Z,61.07
2018-08-17T21:57:43.763Z,63.30
2018-08-17T22:00:31.118Z,64.60
2018-08-17T22:03:02.728Z,64.23
2018-08-17T22:05:35.054Z,63.60
2018-08-17T22:08:06.426Z,63.00
2018-08-17T22:10:37.757Z,59.07
2018-08-17T22:13:17.798Z,59.93
2018-08-17T22:15:49.145Z,62.30
2018-08-17T22:18:20.418Z,65.70
2018-08-17T22:20:51.802Z,66.03
2018-08-17T22:23:23.062Z,65.83
2018-08-17T22:25:54.355Z,69.43
2018-08-17T22:28:25.626Z,61.10
2018-08-17T22:30:57.289Z,60.03
2018-08-17T22:33:28.554Z,62.90
2018-08-17T22:36:00.334Z,66.53
2018-08-17T22:38:35.859Z,67.07
2018-08-17T22:41:07.347Z,66.67
2018-08-17T22:43:38.638Z,67.03
2018-08-17T22:46:10.112Z,63.07
2018-08-17T22:48:41.308Z,63.00
2018-08-17T22:51:12.670Z,64.70
2018-08-17T22:53:43.769Z,65.47
2018-08-17T22:56:14.954Z,62.77
2018-08-17T22:58:48.933Z,63.70
2018-08-17T23:01:22.289Z,61.50
2018-08-17T23:03:55.221Z,61.60
2018-08-17T23:06:27.418Z,64.40
2018-08-17T23:08:59.350Z,60.23
2018-08-17T23:11:38.034Z,66.13
2018-08-17T23:14:17.386Z,64.10
2018-08-17T23:16:49.011Z,64.77
2018-08-17T23:19:20.094Z,62.63
2018-08-17T23:21:51.424Z,63.53
2018-08-17T23:24:22.409Z,64.73
2018-08-17T23:26:53.804Z,61.80
2018-08-17T23:29:25.029Z,60.43
2018-08-17T23:31:56.674Z,60.73
2018-08-17T23:34:27.886Z,64.60
2018-08-17T23:36:59.402Z,63.97
2018-08-17T23:39:30.634Z,60.83
2018-08-17T23:42:02.067Z,58.77
2018-08-17T23:44:33.254Z,63.97
2018-08-17T23:47:04.782Z,62.53
2018-08-17T23:49:35.881Z,62.17
2018-08-17T23:52:07.562Z,63.07
2018-08-17T23:54:39.749Z,65.37
2018-08-17T23:57:11.198Z,66.37
2018-08-17T23:59:42.378Z,65.93
